< < Back
Terminal Aerodrome Forecast


Current Version              Previous Versions:   1  2  3  4  5  6  7  8  9  

Terminal Aerodrome Forecast

174
FTUS42 KFFC 310500
TAFATL
TAF
KATL 310525Z 3106/0112 05005KT P6SM BKN200
     FM311600 09007KT P6SM SCT040 SCT200
     FM311800 07007KT P6SM BKN050
     FM010000 07008KT P6SM BKN150
     FM010900 06008KT P6SM BKN008=

Latest METAR

277
SAUS70 KWBC 311300
MTRATL
METAR KATL 311252Z 07009KT 10SM FEW013 SCT065 BKN180 BKN250 22/18 A3007
RMK AO2 SLP172 VIRGA DSNT E T02170178


USA.gov is the U.S. government's official web portal to all federal, state and local government web resources and services.